Time;durP1;ratioP1;P1;durP2;ratioP2;P2;SDS_P1;SDS_P2;PMS_P1;PMS_P2;Temp;Humidity;BMP_temperature;BMP_pressure;BME280_temperature;BME280_humidity;BME280_pressure;Samples;Min_cycle;Max_cycle;Signal;HPM_P1;HPM_P2
2024/02/18 00:00:38;;;;;;;4.55;1.27;;;;;;;;;;5076666;28;20031;-57
2024/02/18 00:03:05;;;;;;;6.30;1.70;;;;;;;;;;5077133;28;20032;-57
2024/02/18 00:05:33;;;;;;;9.93;1.40;;;;;;;;;;5064127;28;20032;-56
2024/02/18 00:07:59;;;;;;;3.42;1.50;;;;;;;;;;5081154;28;20028;-57
2024/02/18 00:10:25;;;;;;;5.22;1.42;;;;;;;;;;5059796;28;20480;-57
2024/02/18 00:12:51;;;;;;;9.60;1.80;;;;;;;;;;5071411;28;20039;-58
2024/02/18 00:15:17;;;;;;;4.40;1.75;;;;;;;;;;5072679;28;20020;-56
2024/02/18 00:17:43;;;;;;;5.50;1.05;;;;;;;;;;5074028;28;20171;-57
2024/02/18 00:20:11;;;;;;;7.95;1.45;;;;;;;;;;5087839;28;20024;-57
2024/02/18 00:22:37;;;;;;;6.72;1.92;;;;;;;;;;5077567;28;20392;-56
2024/02/18 00:25:03;;;;;;;6.10;1.17;;;;;;;;;;5084274;28;20021;-57
2024/02/18 00:27:29;;;;;;;8.23;1.73;;;;;;;;;;5076093;28;20041;-57
2024/02/18 00:29:55;;;;;;;7.45;1.65;;;;;;;;;;5078083;28;20246;-56
2024/02/18 00:32:21;;;;;;;7.13;1.70;;;;;;;;;;5091457;28;20024;-57
2024/02/18 00:34:47;;;;;;;8.45;1.67;;;;;;;;;;5079312;28;20039;-57
2024/02/18 00:37:13;;;;;;;6.72;1.80;;;;;;;;;;5072681;28;20025;-57
2024/02/18 00:39:39;;;;;;;8.10;1.73;;;;;;;;;;5074215;28;20028;-57
2024/02/18 00:42:06;;;;;;;4.18;1.40;;;;;;;;;;5076267;28;20017;-57
2024/02/18 00:44:32;;;;;;;6.53;1.75;;;;;;;;;;5079755;28;20498;-56
2024/02/18 00:46:58;;;;;;;11.10;1.90;;;;;;;;;;5081427;28;20075;-56
2024/02/18 00:49:24;;;;;;;6.68;1.27;;;;;;;;;;5079203;28;20032;-57
2024/02/18 00:51:50;;;;;;;5.05;1.30;;;;;;;;;;5085170;28;20039;-57
2024/02/18 00:54:16;;;;;;;8.02;1.67;;;;;;;;;;5061993;28;20032;-57
2024/02/18 00:56:42;;;;;;;10.43;1.65;;;;;;;;;;5083261;28;20043;-56
2024/02/18 00:59:08;;;;;;;5.25;1.50;;;;;;;;;;5080181;28;20028;-56
2024/02/18 01:01:34;;;;;;;8.07;2.17;;;;;;;;;;5073376;28;20025;-57
2024/02/18 01:04:00;;;;;;;6.13;1.50;;;;;;;;;;5088476;28;20111;-57
2024/02/18 01:06:26;;;;;;;10.20;1.88;;;;;;;;;;5082015;28;20020;-57
2024/02/18 01:08:52;;;;;;;2.83;1.08;;;;;;;;;;5081023;28;20021;-56
2024/02/18 01:11:18;;;;;;;6.38;1.50;;;;;;;;;;5090459;28;20027;-57
2024/02/18 01:13:44;;;;;;;15.07;2.25;;;;;;;;;;5086076;28;20024;-56
2024/02/18 01:16:10;;;;;;;13.48;1.90;;;;;;;;;;5072698;28;20041;-61
2024/02/18 01:18:42;;;;;;;13.50;1.65;;;;;;;;;;5077764;28;20037;-56
2024/02/18 01:21:08;;;;;;;7.57;1.60;;;;;;;;;;5073537;28;20024;-57
2024/02/18 01:23:34;;;;;;;9.60;1.65;;;;;;;;;;5071987;28;20035;-61
2024/02/18 01:26:00;;;;;;;6.70;1.40;;;;;;;;;;5071392;28;20475;-59
2024/02/18 01:28:26;;;;;;;8.20;1.60;;;;;;;;;;5088251;28;20383;-57
2024/02/18 01:30:52;;;;;;;4.65;1.60;;;;;;;;;;5079850;28;20028;-57
2024/02/18 01:33:20;;;;;;;9.35;2.10;;;;;;;;;;5090183;28;20064;-58
2024/02/18 01:35:46;;;;;;;8.23;1.90;;;;;;;;;;5081486;28;20399;-57
2024/02/18 01:38:12;;;;;;;7.28;1.42;;;;;;;;;;5090030;28;20484;-56
2024/02/18 01:40:38;;;;;;;9.95;1.83;;;;;;;;;;5073570;28;20075;-56
2024/02/18 01:43:04;;;;;;;6.13;1.48;;;;;;;;;;5078334;28;20039;-57
2024/02/18 01:45:31;;;;;;;7.03;1.75;;;;;;;;;;5080631;28;20098;-56
2024/02/18 01:47:57;;;;;;;11.55;1.40;;;;;;;;;;5084147;28;20085;-57
2024/02/18 01:50:24;;;;;;;6.82;1.98;;;;;;;;;;5075746;28;20107;-57
2024/02/18 01:52:50;;;;;;;9.55;1.85;;;;;;;;;;5088141;28;20430;-56
2024/02/18 01:55:17;;;;;;;6.97;1.55;;;;;;;;;;5079701;28;20039;-56
2024/02/18 01:57:44;;;;;;;4.50;1.30;;;;;;;;;;5075949;28;20518;-57
2024/02/18 02:00:12;;;;;;;6.85;1.73;;;;;;;;;;5091264;28;20039;-56
2024/02/18 02:02:40;;;;;;;6.78;1.40;;;;;;;;;;5065732;28;20032;-57
2024/02/18 02:05:08;;;;;;;8.32;1.77;;;;;;;;;;5078591;28;20090;-58
2024/02/18 02:07:35;;;;;;;10.40;1.92;;;;;;;;;;5088487;28;20395;-56
2024/02/18 02:10:03;;;;;;;7.95;1.58;;;;;;;;;;5078926;28;20697;-56
2024/02/18 02:12:29;;;;;;;5.90;1.30;;;;;;;;;;5075944;28;20032;-57
2024/02/18 02:14:55;;;;;;;4.10;1.67;;;;;;;;;;5075698;28;20028;-57
2024/02/18 02:17:21;;;;;;;11.55;2.75;;;;;;;;;;5069448;28;20059;-59
2024/02/18 02:19:47;;;;;;;7.82;2.10;;;;;;;;;;5078830;28;20098;-57
2024/02/18 02:22:13;;;;;;;11.57;2.08;;;;;;;;;;5093931;28;20035;-57
2024/02/18 02:24:39;;;;;;;6.70;1.52;;;;;;;;;;5085473;28;20063;-56
2024/02/18 02:27:07;;;;;;;12.43;1.90;;;;;;;;;;5080051;28;20162;-59
2024/02/18 02:29:34;;;;;;;6.47;1.25;;;;;;;;;;5092418;28;20024;-59
2024/02/18 02:32:00;;;;;;;12.90;1.80;;;;;;;;;;5079823;28;20038;-60
2024/02/18 02:34:28;;;;;;;7.35;1.70;;;;;;;;;;5083851;28;20054;-60
2024/02/18 02:36:54;;;;;;;11.70;1.23;;;;;;;;;;5075168;28;20020;-60
2024/02/18 02:39:20;;;;;;;4.18;1.48;;;;;;;;;;5090398;28;20391;-60
2024/02/18 02:41:46;;;;;;;6.07;1.40;;;;;;;;;;5093124;28;20750;-59
2024/02/18 02:44:12;;;;;;;3.72;1.13;;;;;;;;;;5091958;28;20405;-59
2024/02/18 02:46:38;;;;;;;12.25;2.22;;;;;;;;;;5086382;28;20439;-59
2024/02/18 02:49:04;;;;;;;10.77;2.08;;;;;;;;;;5093595;28;20039;-60
2024/02/18 02:51:30;;;;;;;3.65;1.23;;;;;;;;;;5090938;28;20028;-60
2024/02/18 02:53:57;;;;;;;9.90;1.60;;;;;;;;;;5083434;28;20032;-59
2024/02/18 02:56:23;;;;;;;14.63;2.00;;;;;;;;;;5081983;28;20403;-59
2024/02/18 02:58:49;;;;;;;4.60;1.80;;;;;;;;;;5078133;28;20046;-61
2024/02/18 03:01:15;;;;;;;9.60;2.20;;;;;;;;;;5060461;28;23190;-60
2024/02/18 03:03:41;;;;;;;8.40;1.98;;;;;;;;;;5087237;28;20024;-59
2024/02/18 03:06:07;;;;;;;7.10;1.63;;;;;;;;;;5088320;28;20025;-60
2024/02/18 03:08:33;;;;;;;6.55;2.08;;;;;;;;;;5089557;28;20078;-59
2024/02/18 03:10:59;;;;;;;4.95;1.15;;;;;;;;;;5084212;28;20055;-59
2024/02/18 03:13:25;;;;;;;6.15;1.67;;;;;;;;;;5084345;28;20036;-59
2024/02/18 03:15:51;;;;;;;7.00;1.65;;;;;;;;;;5078781;28;20031;-58
2024/02/18 03:18:17;;;;;;;5.65;1.50;;;;;;;;;;5081561;28;20028;-59
2024/02/18 03:20:43;;;;;;;6.47;1.80;;;;;;;;;;5086865;28;20423;-60
2024/02/18 03:23:09;;;;;;;11.32;2.00;;;;;;;;;;5075514;28;20120;-60
2024/02/18 03:25:36;;;;;;;5.95;1.65;;;;;;;;;;5091493;28;20028;-60
2024/02/18 03:28:02;;;;;;;7.38;1.52;;;;;;;;;;5080812;28;20113;-60
2024/02/18 03:30:28;;;;;;;7.15;1.50;;;;;;;;;;5074524;28;20020;-59
2024/02/18 03:32:54;;;;;;;4.45;1.45;;;;;;;;;;5088018;28;20040;-59
2024/02/18 03:35:27;;;;;;;2.95;1.15;;;;;;;;;;5082141;28;20430;-58
2024/02/18 03:37:53;;;;;;;;;;;;;;;;;;5068522;28;20034;-60
2024/02/18 03:40:19;;;;;;;6.90;2.20;;;;;;;;;;5073445;28;19991;-60
2024/02/18 03:42:45;;;;;;;7.47;2.30;;;;;;;;;;5074616;28;20540;-60
2024/02/18 03:45:11;;;;;;;5.82;2.13;;;;;;;;;;5085288;28;21027;-60
2024/02/18 03:47:36;;;;;;;4.50;1.98;;;;;;;;;;5074690;28;20024;-60
2024/02/18 03:50:02;;;;;;;9.43;2.45;;;;;;;;;;5074449;28;20027;-59
2024/02/18 03:52:28;;;;;;;8.27;2.45;;;;;;;;;;5073039;28;20103;-59
2024/02/18 03:54:54;;;;;;;11.32;2.10;;;;;;;;;;5085457;28;20020;-58
2024/02/18 03:57:20;;;;;;;10.35;2.00;;;;;;;;;;5075367;28;20099;-61
2024/02/18 03:59:46;;;;;;;5.18;1.40;;;;;;;;;;5075186;28;20051;-59
2024/02/18 04:02:12;;;;;;;5.20;1.92;;;;;;;;;;5073749;28;20075;-59
2024/02/18 04:04:38;;;;;;;4.45;1.50;;;;;;;;;;5078424;28;20076;-60
2024/02/18 04:07:04;;;;;;;7.65;1.33;;;;;;;;;;5083293;28;20020;-59
2024/02/18 04:09:30;;;;;;;6.15;1.40;;;;;;;;;;5078362;28;20027;-59
2024/02/18 04:11:57;;;;;;;6.15;1.45;;;;;;;;;;5073985;28;20439;-60
2024/02/18 04:14:23;;;;;;;6.93;2.40;;;;;;;;;;5086422;28;20024;-60
2024/02/18 04:16:49;;;;;;;7.63;1.80;;;;;;;;;;5075672;28;20154;-59
2024/02/18 04:19:15;;;;;;;8.73;1.52;;;;;;;;;;5087557;28;20244;-60
2024/02/18 04:21:41;;;;;;;10.25;1.50;;;;;;;;;;5085581;28;20033;-59
2024/02/18 04:24:07;;;;;;;6.05;1.50;;;;;;;;;;5078783;28;20040;-60
2024/02/18 04:26:33;;;;;;;4.35;1.52;;;;;;;;;;5076506;28;20032;-59
2024/02/18 04:28:59;;;;;;;9.85;1.75;;;;;;;;;;5075353;28;20028;-59
2024/02/18 04:31:25;;;;;;;7.25;1.60;;;;;;;;;;5073516;28;20029;-60
2024/02/18 04:33:51;;;;;;;8.55;2.00;;;;;;;;;;5075965;28;20024;-59
2024/02/18 04:36:17;;;;;;;11.20;1.77;;;;;;;;;;5083663;28;20039;-59
2024/02/18 04:38:46;;;;;;;10.18;1.95;;;;;;;;;;5079355;28;20028;-59
2024/02/18 04:41:14;;;;;;;6.00;1.83;;;;;;;;;;5092649;28;20057;-60
2024/02/18 04:43:40;;;;;;;6.18;2.50;;;;;;;;;;5082138;28;20033;-59
2024/02/18 04:46:09;;;;;;;7.28;2.20;;;;;;;;;;5075644;28;20024;-59
2024/02/18 04:48:39;;;;;;;7.35;1.60;;;;;;;;;;5079932;28;20032;-60
2024/02/18 04:51:05;;;;;;;10.98;2.20;;;;;;;;;;5077357;28;20028;-59
2024/02/18 04:53:31;;;;;;;11.30;3.10;;;;;;;;;;5087147;28;20054;-59
2024/02/18 04:55:57;;;;;;;4.60;1.88;;;;;;;;;;5062493;28;20435;-59
2024/02/18 04:58:23;;;;;;;8.07;1.70;;;;;;;;;;5082789;28;20031;-60
2024/02/18 05:00:49;;;;;;;5.82;1.50;;;;;;;;;;5072271;28;20028;-60
2024/02/18 05:03:15;;;;;;;6.35;2.13;;;;;;;;;;5062583;28;20031;-56
2024/02/18 05:05:41;;;;;;;6.13;2.15;;;;;;;;;;5070980;28;20029;-59
2024/02/18 05:08:07;;;;;;;5.00;1.70;;;;;;;;;;5079390;28;20028;-59
2024/02/18 05:10:33;;;;;;;9.32;1.88;;;;;;;;;;5075282;28;20069;-59
2024/02/18 05:12:59;;;;;;;12.98;5.72;;;;;;;;;;5078808;28;20429;-58
2024/02/18 05:15:25;;;;;;;12.60;2.35;;;;;;;;;;5074061;28;20029;-59
2024/02/18 05:17:51;;;;;;;8.20;2.08;;;;;;;;;;5072600;28;20048;-59
2024/02/18 05:20:17;;;;;;;12.70;3.03;;;;;;;;;;5075908;28;20029;-59
2024/02/18 05:22:44;;;;;;;9.40;1.60;;;;;;;;;;5076201;28;20032;-60
2024/02/18 05:25:10;;;;;;;4.90;1.83;;;;;;;;;;5086901;28;20032;-59
2024/02/18 05:27:36;;;;;;;5.95;1.90;;;;;;;;;;5089296;28;20077;-59
2024/02/18 05:30:03;;;;;;;10.38;3.50;;;;;;;;;;5079332;28;20477;-59
2024/02/18 05:32:29;;;;;;;10.70;1.90;;;;;;;;;;5086910;28;20350;-60
2024/02/18 05:34:55;;;;;;;7.07;1.98;;;;;;;;;;5080714;28;20028;-60
2024/02/18 05:37:21;;;;;;;4.72;2.10;;;;;;;;;;5070371;28;20024;-60
2024/02/18 05:39:47;;;;;;;9.88;2.28;;;;;;;;;;5077598;28;20016;-58
2024/02/18 05:42:13;;;;;;;12.95;2.20;;;;;;;;;;5077512;28;20024;-59
2024/02/18 05:44:39;;;;;;;10.55;2.90;;;;;;;;;;5073153;28;20032;-59
2024/02/18 05:47:05;;;;;;;4.28;1.77;;;;;;;;;;5079056;28;20495;-59
2024/02/18 05:49:30;;;;;;;5.72;2.15;;;;;;;;;;5080928;28;20033;-60
2024/02/18 05:51:57;;;;;;;5.32;2.20;;;;;;;;;;5083447;28;20025;-58
2024/02/18 05:54:23;;;;;;;6.80;2.65;;;;;;;;;;5076287;28;20104;-59
2024/02/18 05:56:49;;;;;;;4.88;1.77;;;;;;;;;;5084408;28;20105;-59
2024/02/18 05:59:15;;;;;;;6.20;2.35;;;;;;;;;;5081787;28;20040;-59
2024/02/18 06:01:42;;;;;;;12.95;1.85;;;;;;;;;;5084688;28;20028;-59
2024/02/18 06:04:08;;;;;;;10.52;2.20;;;;;;;;;;5074023;28;20383;-58
2024/02/18 06:06:34;;;;;;;13.30;3.10;;;;;;;;;;5076491;28;20116;-59
2024/02/18 06:09:00;;;;;;;4.72;1.40;;;;;;;;;;5079823;28;20034;-59
2024/02/18 06:11:26;;;;;;;7.38;1.70;;;;;;;;;;5085785;28;20035;-59
2024/02/18 06:13:52;;;;;;;9.52;1.70;;;;;;;;;;5084498;28;20031;-60
2024/02/18 06:16:18;;;;;;;10.13;2.20;;;;;;;;;;5082650;28;20048;-58
2024/02/18 06:18:44;;;;;;;7.07;1.92;;;;;;;;;;5080665;28;20051;-58
2024/02/18 06:21:19;;;;;;;4.80;1.75;;;;;;;;;;5079913;28;20023;-59
2024/02/18 06:23:45;;;;;;;7.60;1.63;;;;;;;;;;5078677;28;20032;-59
2024/02/18 06:26:11;;;;;;;6.18;1.67;;;;;;;;;;5075206;28;20023;-60
2024/02/18 06:28:37;;;;;;;4.55;1.88;;;;;;;;;;5081092;28;20024;-59
2024/02/18 06:31:03;;;;;;;5.78;2.22;;;;;;;;;;5078213;28;20049;-59
2024/02/18 06:33:29;;;;;;;5.85;1.90;;;;;;;;;;5081678;28;20032;-58
2024/02/18 06:35:56;;;;;;;5.60;2.15;;;;;;;;;;5079575;28;20242;-59
2024/02/18 06:38:22;;;;;;;7.70;2.17;;;;;;;;;;5074908;28;20083;-59
2024/02/18 06:40:47;;;;;;;4.63;1.70;;;;;;;;;;5086680;28;20427;-59
2024/02/18 06:43:13;;;;;;;8.60;1.80;;;;;;;;;;5073969;28;20029;-59
2024/02/18 06:45:39;;;;;;;7.13;2.20;;;;;;;;;;5074087;28;20035;-58
2024/02/18 06:48:06;;;;;;;11.25;2.70;;;;;;;;;;5072631;28;20554;-58
2024/02/18 06:50:31;;;;;;;6.70;2.53;;;;;;;;;;5086637;28;20123;-59
2024/02/18 06:52:57;;;;;;;13.38;3.47;;;;;;;;;;5074476;28;20047;-59
2024/02/18 06:55:23;;;;;;;10.00;3.33;;;;;;;;;;5074122;28;20024;-59
2024/02/18 06:57:49;;;;;;;19.80;3.10;;;;;;;;;;5078179;28;20039;-59
2024/02/18 07:00:16;;;;;;;7.25;3.00;;;;;;;;;;5079021;28;20028;-59
2024/02/18 07:02:43;;;;;;;10.10;2.40;;;;;;;;;;5081380;28;20021;-58
2024/02/18 07:05:09;;;;;;;9.50;3.20;;;;;;;;;;5073875;28;20043;-59
2024/02/18 07:07:35;;;;;;;9.00;3.25;;;;;;;;;;5083692;28;20478;-59
2024/02/18 07:10:01;;;;;;;10.38;2.67;;;;;;;;;;5078465;28;20024;-59
2024/02/18 07:12:29;;;;;;;10.55;3.03;;;;;;;;;;5074432;28;20024;-59
2024/02/18 07:14:55;;;;;;;15.63;3.13;;;;;;;;;;5076979;28;20720;-60
2024/02/18 07:17:21;;;;;;;18.25;3.90;;;;;;;;;;5082297;28;20055;-60
2024/02/18 07:19:48;;;;;;;20.52;4.22;;;;;;;;;;5086855;28;20024;-60
2024/02/18 07:22:15;;;;;;;14.90;2.97;;;;;;;;;;5079290;28;20447;-60
2024/02/18 07:24:41;;;;;;;12.38;2.95;;;;;;;;;;5084531;28;20060;-60
2024/02/18 07:27:07;;;;;;;12.43;3.45;;;;;;;;;;5085896;28;20023;-60
2024/02/18 07:29:33;;;;;;;12.60;2.85;;;;;;;;;;5086555;28;20123;-60
2024/02/18 07:31:59;;;;;;;12.55;3.03;;;;;;;;;;5073590;28;20448;-60
2024/02/18 07:34:25;;;;;;;9.95;2.53;;;;;;;;;;5072113;28;20029;-60
2024/02/18 07:36:51;;;;;;;10.25;2.22;;;;;;;;;;5072752;28;20037;-60
2024/02/18 07:39:17;;;;;;;10.48;2.40;;;;;;;;;;5076818;28;20046;-60
2024/02/18 07:41:43;;;;;;;12.60;2.70;;;;;;;;;;5086900;28;20032;-60
2024/02/18 07:44:09;;;;;;;11.27;3.28;;;;;;;;;;5081355;28;20051;-60
2024/02/18 07:46:35;;;;;;;11.35;2.53;;;;;;;;;;5076142;28;20025;-60
2024/02/18 07:49:01;;;;;;;12.07;2.67;;;;;;;;;;5077709;28;20028;-59
2024/02/18 07:51:27;;;;;;;11.85;3.22;;;;;;;;;;5086761;28;20461;-59
2024/02/18 07:53:55;;;;;;;14.70;2.97;;;;;;;;;;5089373;28;20111;-60
2024/02/18 07:56:21;;;;;;;12.98;2.83;;;;;;;;;;5077052;28;20020;-60
2024/02/18 07:58:48;;;;;;;10.45;2.53;;;;;;;;;;5072717;28;20032;-59
2024/02/18 08:01:14;;;;;;;9.15;2.60;;;;;;;;;;5075276;28;20021;-59
2024/02/18 08:03:40;;;;;;;9.52;2.40;;;;;;;;;;5083338;28;20078;-61
2024/02/18 08:06:09;;;;;;;18.83;3.65;;;;;;;;;;5076019;28;20024;-60
2024/02/18 08:08:35;;;;;;;13.48;3.95;;;;;;;;;;5083169;28;20111;-59
2024/02/18 08:11:01;;;;;;;12.18;3.30;;;;;;;;;;5074690;28;20020;-60
2024/02/18 08:13:27;;;;;;;11.43;2.53;;;;;;;;;;5076418;28;20399;-60
2024/02/18 08:15:54;;;;;;;9.18;2.60;;;;;;;;;;5079128;28;20123;-60
2024/02/18 08:18:20;;;;;;;12.73;3.05;;;;;;;;;;5078069;28;20082;-56
2024/02/18 08:20:46;;;;;;;8.98;3.35;;;;;;;;;;5061606;28;20039;-57
2024/02/18 08:23:12;;;;;;;11.18;2.90;;;;;;;;;;5082474;28;20040;-57
2024/02/18 08:25:38;;;;;;;12.35;2.90;;;;;;;;;;5069902;28;20479;-56
2024/02/18 08:28:04;;;;;;;10.65;2.90;;;;;;;;;;5059345;28;20028;-56
2024/02/18 08:30:30;;;;;;;14.38;3.17;;;;;;;;;;5057810;28;20038;-57
2024/02/18 08:32:56;;;;;;;10.32;3.15;;;;;;;;;;5069671;28;20032;-57
2024/02/18 08:35:23;;;;;;;9.57;2.88;;;;;;;;;;5079651;28;20035;-58
2024/02/18 08:37:49;;;;;;;8.45;2.92;;;;;;;;;;5079093;28;20031;-57
2024/02/18 08:40:16;;;;;;;12.05;2.47;;;;;;;;;;5073570;28;20459;-57
2024/02/18 08:42:42;;;;;;;9.40;3.30;;;;;;;;;;5074991;28;20037;-57
2024/02/18 08:45:11;;;;;;;9.15;2.35;;;;;;;;;;5073856;28;20380;-57
2024/02/18 08:47:37;;;;;;;8.57;2.63;;;;;;;;;;5074691;28;20428;-57
2024/02/18 08:50:03;;;;;;;14.57;3.47;;;;;;;;;;5071281;28;20035;-57
2024/02/18 08:52:29;;;;;;;27.20;13.43;;;;;;;;;;5069242;28;20111;-57
2024/02/18 08:54:55;;;;;;;7.20;2.22;;;;;;;;;;5070903;28;20828;-57
2024/02/18 08:57:21;;;;;;;16.52;6.30;;;;;;;;;;5071469;28;20055;-56
2024/02/18 08:59:47;;;;;;;18.95;5.00;;;;;;;;;;5075524;28;20059;-57
2024/02/18 09:02:13;;;;;;;9.90;3.33;;;;;;;;;;5077231;28;20032;-58
2024/02/18 09:04:39;;;;;;;12.48;4.70;;;;;;;;;;5074731;28;20744;-56
2024/02/18 09:07:05;;;;;;;13.52;3.22;;;;;;;;;;5079203;28;20499;-57
2024/02/18 09:09:31;;;;;;;8.75;2.13;;;;;;;;;;5073245;28;20388;-57
2024/02/18 09:11:57;;;;;;;8.75;2.30;;;;;;;;;;5055431;28;20029;-56
2024/02/18 09:14:23;;;;;;;15.52;2.47;;;;;;;;;;5071252;28;20047;-56
2024/02/18 09:16:49;;;;;;;12.52;2.47;;;;;;;;;;5080762;28;20048;-57
2024/02/18 09:19:15;;;;;;;11.38;2.40;;;;;;;;;;5073622;28;20071;-57
2024/02/18 09:21:42;;;;;;;9.32;2.08;;;;;;;;;;5090097;28;20029;-56
2024/02/18 09:24:08;;;;;;;13.50;2.65;;;;;;;;;;5080416;28;20040;-59
2024/02/18 09:26:34;;;;;;;9.88;2.42;;;;;;;;;;5099260;28;20107;-58
2024/02/18 09:29:00;;;;;;;9.52;2.40;;;;;;;;;;5101975;28;20407;-60
2024/02/18 09:31:26;;;;;;;9.35;2.08;;;;;;;;;;5096174;28;20804;-62
2024/02/18 09:33:52;;;;;;;13.48;3.22;;;;;;;;;;5099867;28;20048;-62
2024/02/18 09:36:18;;;;;;;8.50;2.53;;;;;;;;;;5089467;28;20040;-60
2024/02/18 09:38:44;;;;;;;11.93;2.40;;;;;;;;;;5084384;28;20028;-60
2024/02/18 09:41:14;;;;;;;10.75;2.80;;;;;;;;;;5090271;28;20028;-62
2024/02/18 09:43:42;;;;;;;11.52;2.35;;;;;;;;;;5085720;28;20093;-61
2024/02/18 09:46:09;;;;;;;6.95;2.42;;;;;;;;;;5086626;28;20071;-59
2024/02/18 09:48:37;;;;;;;5.80;2.78;;;;;;;;;;5089966;28;20024;-61
2024/02/18 09:51:07;;;;;;;14.13;5.55;;;;;;;;;;5085318;28;20112;-60
2024/02/18 09:53:36;;;;;;;9.98;3.15;;;;;;;;;;5092086;28;20391;-61
2024/02/18 09:56:02;;;;;;;7.53;2.60;;;;;;;;;;5090302;28;20499;-62
2024/02/18 09:58:28;;;;;;;11.02;2.05;;;;;;;;;;5084796;28;20081;-62
2024/02/18 10:00:55;;;;;;;12.82;2.97;;;;;;;;;;5088623;28;20039;-59
2024/02/18 10:03:21;;;;;;;11.15;2.50;;;;;;;;;;5087907;28;20032;-58
2024/02/18 10:05:47;;;;;;;12.63;2.63;;;;;;;;;;5089608;28;20453;-60
2024/02/18 10:08:13;;;;;;;9.98;2.50;;;;;;;;;;5089661;28;20086;-59
2024/02/18 10:10:39;;;;;;;7.65;2.53;;;;;;;;;;5085935;28;20451;-59
2024/02/18 10:13:07;;;;;;;11.60;3.05;;;;;;;;;;5087580;28;20032;-62
2024/02/18 10:15:34;;;;;;;7.88;3.08;;;;;;;;;;5087504;28;20028;-61
2024/02/18 10:18:00;;;;;;;11.70;4.28;;;;;;;;;;5068979;28;20389;-59
2024/02/18 10:20:32;;;;;;;9.43;3.10;;;;;;;;;;5066101;28;20055;-62
2024/02/18 10:22:58;;;;;;;7.22;2.55;;;;;;;;;;5065482;28;20115;-62
2024/02/18 10:25:24;;;;;;;9.45;2.58;;;;;;;;;;5068921;28;20403;-61
2024/02/18 10:27:56;;;;;;;9.25;3.47;;;;;;;;;;5065175;28;20029;-61
2024/02/18 10:30:22;;;;;;;9.77;2.40;;;;;;;;;;5068472;28;20047;-55
2024/02/18 10:32:48;;;;;;;5.30;2.20;;;;;;;;;;5075597;28;20032;-59
2024/02/18 10:35:14;;;;;;;6.28;2.20;;;;;;;;;;5082977;28;20035;-57
2024/02/18 10:37:42;;;;;;;18.95;2.67;;;;;;;;;;5085142;28;20029;-58
2024/02/18 10:40:12;;;;;;;11.07;2.47;;;;;;;;;;5072881;28;20079;-55
2024/02/18 10:42:41;;;;;;;10.88;2.55;;;;;;;;;;5077360;28;20025;-58
2024/02/18 10:45:08;;;;;;;5.10;2.13;;;;;;;;;;5077898;28;20029;-59
2024/02/18 10:47:36;;;;;;;12.00;2.05;;;;;;;;;;5075834;28;20420;-58
2024/02/18 10:50:06;;;;;;;5.38;2.20;;;;;;;;;;5074347;28;20047;-59
2024/02/18 10:52:41;;;;;;;8.07;2.45;;;;;;;;;;5079645;28;20066;-59
2024/02/18 10:55:12;;;;;;;5.05;1.77;;;;;;;;;;5055278;28;20495;-58
2024/02/18 10:58:07;;;;;;;9.55;2.50;;;;;;;;;;5078889;28;20031;-59
2024/02/18 11:00:37;;;;;;;8.38;2.60;;;;;;;;;;4975064;28;20129;-59
2024/02/18 11:03:09;;;;;;;8.55;3.25;;;;;;;;;;5068590;28;20454;-59
2024/02/18 11:05:35;;;;;;;8.63;3.10;;;;;;;;;;5071053;28;20020;-59
2024/02/18 11:08:02;;;;;;;6.00;2.75;;;;;;;;;;5073754;28;20020;-58
2024/02/18 11:10:29;;;;;;;8.80;2.75;;;;;;;;;;5071939;28;20094;-58
2024/02/18 11:12:56;;;;;;;9.75;3.08;;;;;;;;;;5074141;28;20074;-59
2024/02/18 11:15:22;;;;;;;8.88;2.67;;;;;;;;;;5078918;28;20464;-58
2024/02/18 11:17:48;;;;;;;8.82;2.92;;;;;;;;;;5071506;28;20450;-58
2024/02/18 11:20:14;;;;;;;11.48;2.80;;;;;;;;;;5080093;28;20062;-58
2024/02/18 11:22:41;;;;;;;7.40;3.15;;;;;;;;;;5072647;28;20024;-59
2024/02/18 11:25:07;;;;;;;7.47;3.03;;;;;;;;;;5077361;28;20042;-58
2024/02/18 11:27:35;;;;;;;9.77;3.78;;;;;;;;;;5072310;28;20032;-59
2024/02/18 11:30:01;;;;;;;9.40;4.00;;;;;;;;;;5081074;28;20020;-58
2024/02/18 11:32:27;;;;;;;14.57;3.80;;;;;;;;;;5086316;28;20032;-59
2024/02/18 11:34:54;;;;;;;10.10;3.20;;;;;;;;;;5077184;28;20503;-59
2024/02/18 11:37:32;;;;;;;7.82;3.03;;;;;;;;;;5081469;28;20063;-58
2024/02/18 11:40:01;;;;;;;5.47;2.80;;;;;;;;;;5083343;28;20028;-59
2024/02/18 11:42:27;;;;;;;10.13;3.17;;;;;;;;;;5077807;28;20033;-59
2024/02/18 11:45:01;;;;;;;7.85;3.53;;;;;;;;;;5083297;28;20020;-59
2024/02/18 11:47:28;;;;;;;11.00;4.00;;;;;;;;;;5076373;28;20059;-58
2024/02/18 11:49:54;;;;;;;13.18;4.05;;;;;;;;;;5076270;28;20115;-58
2024/02/18 11:52:20;;;;;;;5.30;2.92;;;;;;;;;;5086736;28;20114;-57
2024/02/18 11:54:46;;;;;;;7.93;3.20;;;;;;;;;;5082319;28;20025;-57
2024/02/18 11:57:12;;;;;;;6.13;3.10;;;;;;;;;;5071711;28;20028;-59
2024/02/18 11:59:38;;;;;;;7.65;3.03;;;;;;;;;;5075656;28;20028;-59
2024/02/18 12:02:04;;;;;;;6.38;2.63;;;;;;;;;;5078874;28;20024;-59
2024/02/18 12:04:30;;;;;;;9.13;2.75;;;;;;;;;;5079163;28;20046;-57
2024/02/18 12:06:59;;;;;;;6.30;2.90;;;;;;;;;;5073039;28;20036;-58
2024/02/18 12:09:26;;;;;;;9.77;3.28;;;;;;;;;;5075729;28;20105;-58
2024/02/18 12:11:52;;;;;;;7.43;3.28;;;;;;;;;;5073282;28;20035;-58
2024/02/18 12:14:20;;;;;;;5.57;2.72;;;;;;;;;;5074218;28;20523;-58
2024/02/18 12:16:46;;;;;;;9.05;3.10;;;;;;;;;;5080288;28;20135;-59
2024/02/18 12:19:12;;;;;;;6.47;2.78;;;;;;;;;;5090335;28;20031;-57
2024/02/18 12:21:38;;;;;;;7.05;2.85;;;;;;;;;;5096012;28;20038;-58
2024/02/18 12:24:06;;;;;;;11.52;3.53;;;;;;;;;;5095748;28;20028;-59
2024/02/18 12:26:32;;;;;;;9.20;3.08;;;;;;;;;;5092149;28;20028;-58
2024/02/18 12:28:58;;;;;;;7.35;3.05;;;;;;;;;;5095063;28;20366;-58
2024/02/18 12:31:25;;;;;;;4.90;2.72;;;;;;;;;;5096335;28;20058;-58
2024/02/18 12:33:51;;;;;;;7.30;3.40;;;;;;;;;;5094440;28;20475;-58
2024/02/18 12:36:17;;;;;;;7.93;3.22;;;;;;;;;;5092254;28;20032;-57
2024/02/18 12:38:43;;;;;;;5.60;3.30;;;;;;;;;;5102645;28;20043;-59
2024/02/18 12:41:10;;;;;;;6.63;3.17;;;;;;;;;;5103928;28;20740;-59
2024/02/18 12:43:36;;;;;;;12.63;3.35;;;;;;;;;;5097143;28;20091;-58
2024/02/18 12:46:04;;;;;;;10.10;3.45;;;;;;;;;;5094060;28;20483;-58
2024/02/18 12:48:29;;;;;;;11.60;4.13;;;;;;;;;;5091748;28;20487;-58
2024/02/18 12:51:11;;;;;;;7.53;4.03;;;;;;;;;;5105489;28;20068;-58
2024/02/18 12:53:41;;;;;;;13.85;4.20;;;;;;;;;;5088649;28;20036;-57
2024/02/18 12:56:08;;;;;;;15.93;5.43;;;;;;;;;;5091337;28;20031;-58
2024/02/18 12:58:38;;;;;;;8.77;4.30;;;;;;;;;;5090660;28;20496;-58
2024/02/18 13:01:07;;;;;;;10.63;4.38;;;;;;;;;;5095851;28;20076;-57
2024/02/18 13:03:34;;;;;;;10.52;4.15;;;;;;;;;;5094569;28;20039;-58
2024/02/18 13:06:00;;;;;;;8.15;3.25;;;;;;;;;;5088482;28;20024;-57
2024/02/18 13:08:26;;;;;;;7.05;3.30;;;;;;;;;;5086897;28;20119;-59
2024/02/18 13:10:52;;;;;;;8.90;3.92;;;;;;;;;;5087643;28;20103;-59
2024/02/18 13:13:18;;;;;;;7.95;4.18;;;;;;;;;;5084213;28;20118;-59
2024/02/18 13:15:44;;;;;;;8.50;4.32;;;;;;;;;;5081270;28;20302;-58
2024/02/18 13:18:10;;;;;;;9.40;4.18;;;;;;;;;;5084230;28;20395;-58
2024/02/18 13:20:36;;;;;;;6.32;3.75;;;;;;;;;;5082258;28;20040;-56
2024/02/18 13:23:02;;;;;;;8.48;4.03;;;;;;;;;;5083709;28;20028;-56
2024/02/18 13:25:28;;;;;;;7.45;3.92;;;;;;;;;;5081486;28;20038;-54
2024/02/18 13:27:54;;;;;;;8.30;4.47;;;;;;;;;;5085692;28;20047;-59
2024/02/18 13:30:22;;;;;;;10.43;4.63;;;;;;;;;;5083253;28;20020;-58
2024/02/18 13:32:48;;;;;;;8.27;4.20;;;;;;;;;;5080651;28;20101;-58
2024/02/18 13:35:14;;;;;;;6.63;4.07;;;;;;;;;;5083393;28;20112;-58
2024/02/18 13:37:40;;;;;;;10.77;4.47;;;;;;;;;;5084778;28;20426;-57
2024/02/18 13:40:07;;;;;;;7.18;3.78;;;;;;;;;;5093143;28;20032;-56
2024/02/18 13:42:34;;;;;;;7.30;4.22;;;;;;;;;;5086014;28;20463;-58
2024/02/18 13:44:59;;;;;;;12.60;4.50;;;;;;;;;;5096708;28;20398;-58
2024/02/18 13:47:25;;;;;;;10.25;4.68;;;;;;;;;;5090196;28;20024;-57
2024/02/18 13:49:57;;;;;;;7.15;4.38;;;;;;;;;;5086914;28;20778;-59
2024/02/18 13:52:23;;;;;;;12.35;4.78;;;;;;;;;;5089194;28;20093;-58
2024/02/18 13:54:49;;;;;;;7.82;4.68;;;;;;;;;;5092645;28;20493;-59
2024/02/18 13:57:15;;;;;;;7.57;4.20;;;;;;;;;;5089481;28;20028;-58
2024/02/18 13:59:41;;;;;;;8.35;4.57;;;;;;;;;;5095668;28;20056;-58
2024/02/18 14:02:07;;;;;;;6.82;3.95;;;;;;;;;;5090068;28;20032;-57
2024/02/18 14:04:33;;;;;;;10.20;4.45;;;;;;;;;;5088824;28;20039;-57
2024/02/18 14:06:59;;;;;;;9.57;4.60;;;;;;;;;;5090568;28;20024;-58
2024/02/18 14:09:25;;;;;;;5.72;3.40;;;;;;;;;;5094398;28;20047;-57
2024/02/18 14:11:51;;;;;;;8.10;3.90;;;;;;;;;;5091976;28;20024;-58
2024/02/18 14:14:17;;;;;;;6.85;3.80;;;;;;;;;;5101621;28;20066;-58
2024/02/18 14:16:46;;;;;;;6.93;3.45;;;;;;;;;;5091210;28;20047;-57
2024/02/18 14:19:14;;;;;;;9.25;4.38;;;;;;;;;;5081274;28;20029;-58
2024/02/18 14:21:40;;;;;;;14.23;4.45;;;;;;;;;;5076607;28;20425;-58
2024/02/18 14:24:06;;;;;;;12.52;4.57;;;;;;;;;;5076833;28;20036;-57
2024/02/18 14:26:32;;;;;;;10.82;4.15;;;;;;;;;;5072538;28;20453;-58
2024/02/18 14:29:00;;;;;;;10.52;4.22;;;;;;;;;;5084320;28;20028;-57
2024/02/18 14:31:26;;;;;;;6.97;3.95;;;;;;;;;;5079803;28;20035;-58
2024/02/18 14:33:53;;;;;;;7.93;4.57;;;;;;;;;;5076327;28;20095;-58